createdAt,value
2019-04-10T00:00:00.230Z,16.47
2019-04-10T00:02:48.166Z,19.33
2019-04-10T00:05:36.174Z,15.43
2019-04-10T00:08:22.406Z,17.57
2019-04-10T00:11:10.246Z,17.67
2019-04-10T00:13:58.710Z,16.03
2019-04-10T00:16:45.113Z,18.50
2019-04-10T00:19:32.906Z,15.53
2019-04-10T00:22:20.160Z,19.12
2019-04-10T00:25:06.956Z,17.37
2019-04-10T00:31:02.841Z,18.57
2019-04-10T00:33:51.176Z,15.37
2019-04-10T00:36:37.357Z,19.37
2019-04-10T00:39:24.481Z,18.57
2019-04-10T00:42:18.989Z,21.45
2019-04-10T00:45:06.403Z,17.10
2019-04-10T00:50:59.800Z,16.03
2019-04-10T00:53:47.552Z,17.17
2019-04-10T00:59:40.799Z,17.87
2019-04-10T01:02:29.073Z,18.37
2019-04-10T01:08:22.458Z,13.43
2019-04-10T01:11:10.719Z,16.37
2019-04-10T01:14:05.396Z,19.37
2019-04-10T01:16:52.251Z,18.87
2019-04-10T01:19:40.504Z,19.65
2019-04-10T01:22:27.560Z,18.37
2019-04-10T01:31:27.263Z,21.17
2019-04-10T01:34:29.473Z,21.33
2019-04-10T01:37:16.661Z,22.60
2019-04-10T01:40:03.170Z,19.27
2019-04-10T01:49:03.063Z,19.83
2019-04-10T01:51:50.309Z,19.30
2019-04-10T01:57:44.235Z,23.55
2019-04-10T02:00:34.183Z,21.57
2019-04-10T02:06:28.139Z,19.30
2019-04-10T02:12:22.804Z,17.93
2019-04-10T02:15:14.015Z,20.13
2019-04-10T02:18:10.921Z,19.13
2019-04-10T02:20:59.118Z,22.70
2019-04-10T02:23:46.923Z,20.43
2019-04-10T02:29:54.094Z,24.42
2019-04-10T02:32:45.107Z,26.90
2019-04-10T02:38:57.473Z,20.50
2019-04-10T02:47:43.259Z,25.03
2019-04-10T02:50:29.378Z,19.63
2019-04-10T02:56:23.782Z,24.30
2019-04-10T03:02:16.213Z,20.57
2019-04-10T03:05:04.593Z,26.13
2019-04-10T03:07:50.370Z,22.30
2019-04-10T03:10:44.142Z,27.08
2019-04-10T03:13:26.857Z,27.48
2019-04-10T03:16:27.241Z,28.23
2019-04-10T03:19:14.531Z,21.97
2019-04-10T03:22:01.847Z,23.40
2019-04-10T03:24:50.660Z,24.40
2019-04-10T03:27:50.757Z,28.60
2019-04-10T03:30:53.833Z,22.47
2019-04-10T03:33:44.572Z,22.33
2019-04-10T03:36:28.029Z,20.87
2019-04-10T03:42:23.223Z,19.30
2019-04-10T03:45:09.593Z,19.50
2019-04-10T03:51:03.986Z,22.20
2019-04-10T03:53:50.801Z,18.67
2019-04-10T03:56:52.359Z,19.53
2019-04-10T03:59:40.717Z,27.13
2019-04-10T04:02:27.358Z,22.77
2019-04-10T04:05:13.271Z,22.17
2019-04-10T04:08:01.303Z,20.80
2019-04-10T04:11:03.144Z,20.43
2019-04-10T04:13:50.118Z,22.47
2019-04-10T04:16:37.335Z,18.83
2019-04-10T04:19:24.139Z,22.30
2019-04-10T04:22:25.863Z,21.47
2019-04-10T04:25:13.086Z,22.73
2019-04-10T04:28:00.839Z,25.90
2019-04-10T04:40:06.914Z,20.20
2019-04-10T04:42:57.890Z,18.93
2019-04-10T04:45:44.473Z,19.83
2019-04-10T04:51:37.465Z,19.60
2019-04-10T04:54:31.696Z,18.00
2019-04-10T04:57:18.842Z,19.37
2019-04-10T05:00:07.672Z,19.60
2019-04-10T05:03:07.842Z,17.67
2019-04-10T05:12:16.389Z,21.87
2019-04-10T05:15:02.641Z,18.93
2019-04-10T05:20:56.693Z,17.67
2019-04-10T05:23:42.917Z,20.48
2019-04-10T05:26:30.274Z,20.00
2019-04-10T05:29:18.226Z,16.63
2019-04-10T05:32:05.635Z,17.97
2019-04-10T05:34:53.178Z,16.80
2019-04-10T05:37:47.785Z,18.40
2019-04-10T05:40:36.656Z,21.33
2019-04-10T05:43:24.021Z,20.37
2019-04-10T05:46:10.669Z,20.03
2019-04-10T05:55:10.109Z,22.90
2019-04-10T05:57:59.388Z,22.53
2019-04-10T06:00:47.117Z,21.77
2019-04-10T06:06:40.875Z,19.50
2019-04-10T06:09:51.939Z,25.40
2019-04-10T06:12:28.604Z,27.42
2019-04-10T06:15:16.908Z,24.23
2019-04-10T06:18:03.064Z,21.80
2019-04-10T06:20:50.428Z,28.63
2019-04-10T06:26:44.455Z,22.60
2019-04-10T06:29:35.385Z,25.83
2019-04-10T06:32:25.519Z,28.40
2019-04-10T06:35:13.588Z,25.90
2019-04-10T06:37:59.747Z,27.40
2019-04-10T06:40:46.582Z,27.93
2019-04-10T06:46:41.708Z,27.33
2019-04-10T06:49:29.137Z,27.40
2019-04-10T06:52:16.596Z,27.30
2019-04-10T06:55:03.106Z,28.17
2019-04-10T06:57:55.047Z,23.57
2019-04-10T07:00:38.953Z,28.50
2019-04-10T07:03:45.077Z,22.57
2019-04-10T07:06:19.864Z,25.53
2019-04-10T07:09:01.646Z,24.07
2019-04-10T07:14:58.111Z,22.00
2019-04-10T07:17:43.556Z,25.45
2019-04-10T07:20:31.564Z,23.10
2019-04-10T07:23:23.397Z,23.83
2019-04-10T07:26:04.374Z,23.73
2019-04-10T07:28:51.913Z,21.53
2019-04-10T07:31:39.942Z,15.97
2019-04-10T07:34:29.799Z,16.47
2019-04-10T07:37:17.518Z,20.93
2019-04-10T07:40:04.085Z,16.97
2019-04-10T07:42:50.421Z,16.97
2019-04-10T07:45:36.972Z,17.93
2019-04-10T07:48:25.121Z,16.40
2019-04-10T07:51:11.304Z,15.60
2019-04-10T07:53:58.107Z,15.23
2019-04-10T07:56:45.567Z,14.60
2019-04-10T07:59:33.406Z,18.90
2019-04-10T08:02:19.734Z,16.33
2019-04-10T08:05:08.058Z,10.17
2019-04-10T08:07:55.953Z,11.97
2019-04-10T08:10:43.674Z,13.00
2019-04-10T08:13:28.920Z,12.90
2019-04-10T08:16:17.032Z,10.40
2019-04-10T08:19:04.030Z,10.93
2019-04-10T08:21:50.839Z,10.40
2019-04-10T08:24:40.769Z,11.52
2019-04-10T08:27:27.987Z,8.85
2019-04-10T08:30:15.417Z,8.68
2019-04-10T08:33:04.449Z,9.07
2019-04-10T08:35:50.567Z,9.57
2019-04-10T08:38:38.064Z,9.02
2019-04-10T08:41:26.838Z,11.57
2019-04-10T08:44:13.537Z,6.82
2019-04-10T08:47:00.105Z,7.45
2019-04-10T08:49:47.475Z,8.35
2019-04-10T08:55:42.031Z,9.32
2019-04-10T08:58:29.283Z,6.97
2019-04-10T09:01:23.596Z,8.63
2019-04-10T09:04:12.506Z,8.45
2019-04-10T09:07:01.396Z,9.00
2019-04-10T09:09:46.046Z,7.82
2019-04-10T09:12:33.648Z,7.50
2019-04-10T09:15:19.567Z,7.47
2019-04-10T09:18:08.151Z,8.40
2019-04-10T09:20:55.092Z,9.75
2019-04-10T09:23:47.347Z,10.38
2019-04-10T09:26:28.768Z,9.18
2019-04-10T09:29:16.100Z,7.25
2019-04-10T09:32:04.395Z,7.37
2019-04-10T09:34:50.384Z,8.18
2019-04-10T09:37:38.160Z,7.57
2019-04-10T09:40:40.257Z,7.25
2019-04-10T09:43:26.372Z,10.13
2019-04-10T09:46:13.531Z,8.20
2019-04-10T09:49:00.544Z,7.35
2019-04-10T09:51:48.185Z,8.18
2019-04-10T09:54:34.957Z,7.37
2019-04-10T09:57:22.480Z,12.00
2019-04-10T10:00:10.456Z,6.75
2019-04-10T10:02:55.805Z,8.95
2019-04-10T10:05:44.599Z,8.45
2019-04-10T10:08:31.440Z,6.93
2019-04-10T10:11:18.069Z,6.93
2019-04-10T10:14:04.324Z,7.95
2019-04-10T10:16:52.697Z,8.02
2019-04-10T10:19:40.627Z,8.07
2019-04-10T10:22:27.396Z,8.85
2019-04-10T10:25:15.226Z,6.85
2019-04-10T10:28:01.476Z,8.05
2019-04-10T10:30:49.519Z,8.63
2019-04-10T10:33:52.201Z,7.85
2019-04-10T10:36:41.923Z,7.70
2019-04-10T10:39:26.543Z,6.57
2019-04-10T10:42:13.740Z,6.10
2019-04-10T10:48:08.601Z,7.20
2019-04-10T10:50:56.214Z,6.62
2019-04-10T10:53:42.387Z,9.23
2019-04-10T10:56:30.598Z,6.07
2019-04-10T10:59:17.519Z,7.90
2019-04-10T11:02:04.352Z,5.95
2019-04-10T11:04:51.700Z,6.10
2019-04-10T11:07:38.852Z,6.43
2019-04-10T11:10:27.631Z,7.32
2019-04-10T11:13:15.023Z,7.18
2019-04-10T11:16:03.952Z,6.18
2019-04-10T11:18:48.458Z,6.20
2019-04-10T11:21:34.705Z,7.53
2019-04-10T11:24:22.827Z,6.55
2019-04-10T11:30:16.220Z,6.75
2019-04-10T11:33:04.047Z,6.28
2019-04-10T11:35:51.530Z,6.10
2019-04-10T11:38:39.688Z,6.47
2019-04-10T11:41:26.228Z,6.25
2019-04-10T11:44:14.399Z,8.15
2019-04-10T11:47:00.468Z,6.47
2019-04-10T11:49:49.576Z,10.20
2019-04-10T11:55:46.719Z,7.75
2019-04-10T11:58:29.117Z,6.43
2019-04-10T12:01:17.560Z,7.82
2019-04-10T12:04:06.750Z,7.95
2019-04-10T12:06:54.046Z,7.72
2019-04-10T12:12:25.835Z,7.47
2019-04-10T12:15:12.299Z,7.55
2019-04-10T12:17:59.025Z,8.48
2019-04-10T12:20:46.338Z,6.40
2019-04-10T12:26:40.196Z,6.78
2019-04-10T12:32:34.718Z,5.70
2019-04-10T12:35:22.621Z,7.97
2019-04-10T12:41:17.213Z,7.12
2019-04-10T12:44:03.261Z,7.10
2019-04-10T12:46:51.178Z,8.05
2019-04-10T12:49:52.159Z,8.07
2019-04-10T12:52:40.966Z,8.77
2019-04-10T12:55:28.326Z,8.63
2019-04-10T12:58:17.668Z,9.77
2019-04-10T13:01:04.476Z,8.15
2019-04-10T13:03:50.186Z,7.28
2019-04-10T13:06:52.725Z,8.93
2019-04-10T13:09:53.963Z,7.62
2019-04-10T13:12:43.183Z,8.15
2019-04-10T13:15:31.768Z,7.30
2019-04-10T13:18:18.480Z,6.10
2019-04-10T13:21:05.017Z,6.12
2019-04-10T13:23:53.047Z,6.22
2019-04-10T13:26:41.902Z,6.30
2019-04-10T13:29:36.380Z,6.53
2019-04-10T13:32:23.398Z,7.12
2019-04-10T13:35:10.201Z,5.82
2019-04-10T13:37:56.900Z,6.35
2019-04-10T13:40:43.830Z,5.70
2019-04-10T13:43:30.988Z,7.62
2019-04-10T13:46:18.493Z,6.10
2019-04-10T13:49:06.041Z,6.82
2019-04-10T13:51:51.947Z,7.30
2019-04-10T13:54:40.884Z,7.35
2019-04-10T13:57:27.045Z,6.65
2019-04-10T14:00:14.350Z,5.95
2019-04-10T14:03:01.950Z,7.47
2019-04-10T14:05:49.747Z,6.30
2019-04-10T14:09:01.808Z,5.12
2019-04-10T14:14:31.002Z,4.97
2019-04-10T14:17:19.508Z,7.43
2019-04-10T14:20:05.351Z,6.70
2019-04-10T14:23:10.481Z,6.10
2019-04-10T14:29:30.237Z,6.78
2019-04-10T14:32:17.504Z,9.15
2019-04-10T14:35:05.245Z,5.18
2019-04-10T14:37:52.713Z,4.87
2019-04-10T14:40:40.130Z,6.45
2019-04-10T14:43:28.439Z,5.90
2019-04-10T14:46:14.713Z,5.30
2019-04-10T14:49:02.823Z,5.35
2019-04-10T14:51:49.614Z,5.78
2019-04-10T14:54:37.656Z,5.55
2019-04-10T14:57:24.541Z,7.68
2019-04-10T15:00:18.111Z,9.27
2019-04-10T15:03:12.648Z,11.85
2019-04-10T15:06:01.379Z,6.68
2019-04-10T15:08:48.785Z,10.63
2019-04-10T15:11:48.962Z,6.18
2019-04-10T15:14:35.940Z,5.00
2019-04-10T15:17:23.104Z,5.72
2019-04-10T15:20:11.081Z,5.95
2019-04-10T15:22:56.784Z,15.25
2019-04-10T15:25:43.982Z,6.05
2019-04-10T15:28:31.904Z,6.93
2019-04-10T15:31:19.966Z,5.47
2019-04-10T15:34:14.676Z,5.57
2019-04-10T15:37:01.569Z,6.43
2019-04-10T15:39:49.696Z,5.12
2019-04-10T15:42:37.808Z,6.07
2019-04-10T15:45:26.027Z,6.00
2019-04-10T15:48:13.484Z,5.55
2019-04-10T15:51:00.261Z,4.82
2019-04-10T15:53:47.318Z,5.80
2019-04-10T15:56:34.749Z,8.02
2019-04-10T16:02:28.550Z,7.22
2019-04-10T16:05:15.892Z,5.65
2019-04-10T16:08:03.118Z,5.90
2019-04-10T16:11:05.523Z,9.93
2019-04-10T16:14:16.963Z,6.85
2019-04-10T16:16:59.165Z,5.62
2019-04-10T16:19:51.924Z,5.55
2019-04-10T16:22:40.542Z,6.03
2019-04-10T16:25:30.101Z,6.07
2019-04-10T16:28:18.035Z,5.78
2019-04-10T16:31:08.368Z,6.20
2019-04-10T16:33:58.896Z,7.03
2019-04-10T16:36:50.110Z,6.03
2019-04-10T16:42:43.611Z,5.28
2019-04-10T16:45:30.708Z,4.90
2019-04-10T16:48:18.909Z,6.65
2019-04-10T16:51:05.152Z,5.35
2019-04-10T16:53:53.695Z,5.57
2019-04-10T16:56:40.180Z,5.80
2019-04-10T17:02:33.892Z,7.45
2019-04-10T17:05:21.352Z,5.45
2019-04-10T17:14:23.804Z,7.03
2019-04-10T17:17:10.658Z,7.82
2019-04-10T17:19:58.998Z,9.88
2019-04-10T17:22:47.706Z,7.97
2019-04-10T17:25:32.111Z,14.18
2019-04-10T17:28:22.043Z,7.62
2019-04-10T17:31:07.503Z,6.87
2019-04-10T17:33:54.562Z,6.62
2019-04-10T17:36:41.109Z,7.85
2019-04-10T17:39:43.774Z,9.15
2019-04-10T17:42:30.489Z,7.17
2019-04-10T17:45:18.534Z,8.43
2019-04-10T17:48:05.200Z,10.03
2019-04-10T17:50:55.219Z,8.33
2019-04-10T17:53:41.869Z,8.87
2019-04-10T17:56:28.408Z,9.40
2019-04-10T17:59:16.277Z,6.90
2019-04-10T18:05:10.899Z,7.83
2019-04-10T18:07:58.697Z,7.77
2019-04-10T18:10:49.867Z,9.03
2019-04-10T18:13:31.918Z,11.37
2019-04-10T18:16:20.006Z,7.03
2019-04-10T18:19:06.873Z,10.10
2019-04-10T18:21:56.389Z,6.73
2019-04-10T18:24:43.313Z,8.70
2019-04-10T18:30:37.145Z,7.33
2019-04-10T18:33:24.545Z,6.67
2019-04-10T18:36:11.365Z,7.83
2019-04-10T18:38:59.635Z,6.97
2019-04-10T18:41:46.567Z,10.90
2019-04-10T18:44:33.536Z,5.63
2019-04-10T18:53:45.777Z,6.97
2019-04-10T18:56:33.460Z,6.23
2019-04-10T18:59:40.890Z,7.70
2019-04-10T19:02:37.044Z,7.33
2019-04-10T19:05:26.050Z,7.53
2019-04-10T19:08:14.316Z,7.03
2019-04-10T19:11:15.385Z,6.53
2019-04-10T19:14:00.709Z,6.77
2019-04-10T19:16:55.914Z,12.93
2019-04-10T19:20:02.131Z,8.10
2019-04-10T19:25:50.942Z,6.03
2019-04-10T19:31:50.337Z,8.00
2019-04-10T19:34:37.502Z,5.77
2019-04-10T19:37:24.923Z,4.97
2019-04-10T19:40:11.310Z,7.60
2019-04-10T19:49:12.285Z,5.60
2019-04-10T19:52:00.163Z,6.37
2019-04-10T19:54:47.260Z,7.67
2019-04-10T19:57:34.270Z,6.47
2019-04-10T20:00:22.148Z,6.63
2019-04-10T20:03:09.099Z,6.73
2019-04-10T20:05:57.686Z,4.83
2019-04-10T20:08:44.500Z,5.77
2019-04-10T20:11:38.698Z,7.90
2019-04-10T20:14:20.133Z,6.73
2019-04-10T20:17:08.152Z,7.03
2019-04-10T20:19:57.181Z,6.17
2019-04-10T20:22:44.013Z,8.50
2019-04-10T20:25:32.505Z,7.03
2019-04-10T20:28:19.185Z,6.23
2019-04-10T20:31:07.334Z,5.53
2019-04-10T20:33:54.763Z,5.40
2019-04-10T20:36:41.643Z,6.30
2019-04-10T20:42:34.226Z,4.67
2019-04-10T20:45:23.148Z,5.55
2019-04-10T20:48:09.640Z,5.43
2019-04-10T20:50:57.384Z,5.13
2019-04-10T20:53:44.284Z,5.17
2019-04-10T20:56:34.763Z,6.13
2019-04-10T20:59:21.013Z,8.10
2019-04-10T21:02:08.223Z,6.73
2019-04-10T21:08:06.206Z,7.20
2019-04-10T21:10:53.210Z,7.27
2019-04-10T21:13:40.636Z,6.57
2019-04-10T21:16:28.654Z,6.40
2019-04-10T21:19:16.614Z,5.40
2019-04-10T21:22:04.338Z,6.73
2019-04-10T21:27:58.614Z,7.77
2019-04-10T21:30:46.476Z,5.50
2019-04-10T21:36:41.579Z,6.50
2019-04-10T21:39:29.662Z,7.03
2019-04-10T21:42:22.285Z,6.27
2019-04-10T21:48:12.603Z,6.73
2019-04-10T21:51:00.503Z,6.68
2019-04-10T21:53:47.368Z,7.03
2019-04-10T21:56:35.158Z,7.30
2019-04-10T21:59:21.151Z,6.20
2019-04-10T22:02:08.452Z,7.50
2019-04-10T22:04:55.981Z,7.87
2019-04-10T22:07:45.994Z,7.23
2019-04-10T22:10:46.642Z,6.10
2019-04-10T22:13:33.441Z,6.07
2019-04-10T22:16:21.973Z,5.77
2019-04-10T22:19:08.001Z,7.77
2019-04-10T22:21:55.792Z,7.30
2019-04-10T22:24:43.916Z,5.90
2019-04-10T22:30:37.203Z,7.23
2019-04-10T22:33:25.017Z,8.67
2019-04-10T22:36:20.635Z,7.07
2019-04-10T22:39:06.775Z,5.10
2019-04-10T22:42:01.160Z,8.48
2019-04-10T22:44:49.893Z,7.70
2019-04-10T22:47:36.701Z,7.43
2019-04-10T22:50:24.463Z,6.77
2019-04-10T22:53:10.381Z,7.53
2019-04-10T22:56:04.764Z,8.07
2019-04-10T22:58:53.201Z,7.10
2019-04-10T23:01:39.791Z,8.97
2019-04-10T23:04:26.480Z,8.40
2019-04-10T23:07:13.582Z,7.72
2019-04-10T23:10:02.576Z,7.33
2019-04-10T23:12:57.543Z,8.68
2019-04-10T23:21:50.920Z,7.27
2019-04-10T23:24:51.949Z,7.73
2019-04-10T23:27:38.746Z,8.00
2019-04-10T23:30:33.020Z,9.43
2019-04-10T23:33:19.763Z,8.57
2019-04-10T23:36:07.656Z,7.27
2019-04-10T23:38:53.949Z,8.35
2019-04-10T23:41:42.083Z,8.55
2019-04-10T23:44:33.163Z,8.30
2019-04-10T23:47:26.332Z,7.30
2019-04-10T23:50:15.024Z,6.77
2019-04-10T23:53:00.624Z,6.83
2019-04-10T23:56:02.204Z,7.07
2019-04-10T23:58:50.645Z,6.23
